createdAt,value
2022-09-09T00:02:28.357Z,90.68
2022-09-09T00:05:41.894Z,90.14
2022-09-09T00:08:16.262Z,91.44
2022-09-09T00:10:43.174Z,91.52
2022-09-09T00:13:25.533Z,91.59
2022-09-09T00:16:29.300Z,91.38
2022-09-09T00:19:25.297Z,91.28
2022-09-09T00:22:21.386Z,91.36
2022-09-09T00:24:57.385Z,91.07
2022-09-09T00:27:38.954Z,90.60
2022-09-09T00:30:32.749Z,91.65
2022-09-09T00:33:13.704Z,92.18
2022-09-09T00:35:49.102Z,92.32
2022-09-09T00:38:52.256Z,92.31
2022-09-09T00:42:00.222Z,92.32
2022-09-09T00:44:38.102Z,92.06
2022-09-09T00:47:50.441Z,91.69
2022-09-09T00:50:56.268Z,91.59
2022-09-09T00:53:58.692Z,91.54
2022-09-09T00:57:01.255Z,92.19
2022-09-09T01:00:06.373Z,92.35
2022-09-09T01:02:53.821Z,91.98
2022-09-09T01:06:06.059Z,91.58
2022-09-09T01:09:02.145Z,91.49
2022-09-09T01:12:15.989Z,91.20
2022-09-09T01:14:52.981Z,92.73
2022-09-09T01:17:45.319Z,93.02
2022-09-09T01:20:31.124Z,93.00
2022-09-09T01:23:35.577Z,94.09
2022-09-09T01:26:31.680Z,93.39
2022-09-09T01:28:58.869Z,94.06
2022-09-09T01:31:43.795Z,93.96
2022-09-09T01:34:16.454Z,94.17
2022-09-09T01:37:08.157Z,91.46
2022-09-09T01:39:38.463Z,92.96
2022-09-09T01:42:10.113Z,93.41
2022-09-09T01:44:38.963Z,92.46
2022-09-09T01:47:07.094Z,92.85
2022-09-09T01:49:34.066Z,92.25
2022-09-09T01:52:02.021Z,92.55
2022-09-09T01:54:33.522Z,92.02
2022-09-09T01:57:28.237Z,91.92
2022-09-09T02:00:14.551Z,93.09
2022-09-09T02:03:26.073Z,93.17
2022-09-09T02:06:27.350Z,93.56
2022-09-09T02:08:58.530Z,93.32
2022-09-09T02:11:29.793Z,92.74
2022-09-09T02:14:11.081Z,94.23
2022-09-09T02:16:52.853Z,93.42
2022-09-09T02:19:28.729Z,93.28
2022-09-09T02:21:59.747Z,93.76
2022-09-09T02:24:30.807Z,93.21
2022-09-09T02:26:59.776Z,93.16
2022-09-09T02:29:36.822Z,93.17
2022-09-09T02:32:10.034Z,93.40
2022-09-09T02:34:45.446Z,94.27
2022-09-09T02:37:14.919Z,93.73
2022-09-09T02:39:41.918Z,93.76
2022-09-09T02:42:09.387Z,93.59
2022-09-09T02:44:40.278Z,93.49
2022-09-09T02:48:10.346Z,92.59
2022-09-09T02:50:54.679Z,93.05
2022-09-09T02:53:39.975Z,93.04
2022-09-09T02:56:20.823Z,93.22
2022-09-09T02:58:50.336Z,93.51
2022-09-09T03:01:18.191Z,92.74
2022-09-09T03:03:45.418Z,94.23
2022-09-09T03:06:12.821Z,93.82
2022-09-09T03:08:39.795Z,93.74
2022-09-09T03:11:07.039Z,92.76
2022-09-09T03:13:34.691Z,94.02
2022-09-09T03:16:01.665Z,93.53
2022-09-09T03:18:29.125Z,93.76
2022-09-09T03:20:56.355Z,93.20
2022-09-09T03:23:23.862Z,92.70
2022-09-09T03:25:52.205Z,93.32
2022-09-09T03:28:19.589Z,93.73
2022-09-09T03:30:46.546Z,93.22
2022-09-09T03:33:13.648Z,92.40
2022-09-09T03:35:47.095Z,92.33
2022-09-09T03:38:14.014Z,92.66
2022-09-09T03:40:49.635Z,91.73
2022-09-09T03:43:17.561Z,92.95
2022-09-09T03:45:50.571Z,92.96
2022-09-09T03:48:21.431Z,93.33
2022-09-09T03:50:52.233Z,93.75
2022-09-09T03:53:25.573Z,92.65
2022-09-09T03:55:56.858Z,94.34
2022-09-09T03:58:27.665Z,94.44
2022-09-09T04:01:00.831Z,94.00
2022-09-09T04:03:29.328Z,93.36
2022-09-09T04:05:59.769Z,93.15
2022-09-09T04:08:27.781Z,93.78
2022-09-09T04:10:58.791Z,93.32
2022-09-09T04:13:27.312Z,94.03
2022-09-09T04:16:00.886Z,93.77
2022-09-09T04:18:31.426Z,94.22
2022-09-09T04:20:59.095Z,93.12
2022-09-09T04:23:30.453Z,93.68
2022-09-09T04:26:00.166Z,92.25
2022-09-09T04:28:31.107Z,93.55
2022-09-09T04:31:04.371Z,93.01
2022-09-09T04:33:35.963Z,93.14
2022-09-09T04:36:05.973Z,92.38
2022-09-09T04:38:33.013Z,92.31
2022-09-09T04:41:00.069Z,93.02
2022-09-09T04:43:27.074Z,92.47
2022-09-09T04:45:54.616Z,92.88
2022-09-09T04:48:22.326Z,93.31
2022-09-09T04:51:15.819Z,92.97
2022-09-09T04:53:42.818Z,92.47
2022-09-09T04:56:14.934Z,92.16
2022-09-09T04:58:46.420Z,92.55
2022-09-09T05:01:19.189Z,93.34
2022-09-09T05:03:47.026Z,93.42
2022-09-09T05:06:18.107Z,92.14
2022-09-09T05:08:46.296Z,92.93
2022-09-09T05:11:30.870Z,91.88
2022-09-09T05:13:58.028Z,90.70
2022-09-09T05:16:25.040Z,91.81
2022-09-09T05:18:52.243Z,91.38
2022-09-09T05:21:22.340Z,92.30
2022-09-09T05:23:49.723Z,92.83
2022-09-09T05:26:21.297Z,92.09
2022-09-09T05:28:48.878Z,91.63
2022-09-09T05:31:19.237Z,91.50
2022-09-09T05:33:49.115Z,92.29
2022-09-09T05:36:21.861Z,91.44
2022-09-09T05:38:50.813Z,91.20
2022-09-09T05:41:18.384Z,91.31
2022-09-09T05:43:46.552Z,90.12
2022-09-09T05:46:25.164Z,89.55
2022-09-09T05:48:54.322Z,88.95
2022-09-09T05:51:31.272Z,90.24
2022-09-09T05:54:01.198Z,90.44
2022-09-09T05:56:30.331Z,89.76
2022-09-09T05:58:57.963Z,89.25
2022-09-09T06:01:35.374Z,88.15
2022-09-09T06:04:03.736Z,89.15
2022-09-09T06:06:43.135Z,89.87
2022-09-09T06:09:11.637Z,89.74
2022-09-09T06:11:40.953Z,88.66
2022-09-09T06:14:09.613Z,87.61
2022-09-09T06:16:40.168Z,87.05
2022-09-09T06:19:07.443Z,86.46
2022-09-09T06:21:38.003Z,85.92
2022-09-09T06:24:08.397Z,86.37
2022-09-09T06:26:50.003Z,87.14
2022-09-09T06:29:17.202Z,87.96
2022-09-09T06:31:59.833Z,87.00
2022-09-09T06:34:46.404Z,85.79
2022-09-09T06:37:13.456Z,85.49
2022-09-09T06:39:40.542Z,86.02
2022-09-09T06:42:10.211Z,84.89
2022-09-09T06:44:37.487Z,85.12
2022-09-09T06:47:04.833Z,84.81
2022-09-09T06:49:31.809Z,84.47
2022-09-09T06:51:58.836Z,83.92
2022-09-09T06:54:29.693Z,84.67
2022-09-09T06:56:56.776Z,84.45
2022-09-09T06:59:24.039Z,83.61
2022-09-09T07:02:03.416Z,84.88
2022-09-09T07:04:30.687Z,85.84
2022-09-09T07:06:57.697Z,86.00
2022-09-09T07:09:28.365Z,85.80
2022-09-09T07:11:55.595Z,83.91
2022-09-09T07:14:23.619Z,83.29
2022-09-09T07:16:50.584Z,84.30
2022-09-09T07:19:17.845Z,83.39
2022-09-09T07:22:00.315Z,82.87
2022-09-09T07:24:31.499Z,81.69
2022-09-09T07:26:58.462Z,81.59
2022-09-09T07:29:25.458Z,81.39
2022-09-09T07:31:52.723Z,80.83
2022-09-09T07:34:20.323Z,81.34
2022-09-09T07:36:47.695Z,80.20
2022-09-09T07:39:19.989Z,80.34
2022-09-09T07:41:49.261Z,79.61
2022-09-09T07:44:24.193Z,78.74
2022-09-09T07:46:51.636Z,77.69
2022-09-09T07:49:24.436Z,79.83
2022-09-09T07:51:54.817Z,79.19
2022-09-09T07:54:24.810Z,78.26
2022-09-09T07:56:53.644Z,78.13
2022-09-09T07:59:21.216Z,78.10
2022-09-09T08:01:54.368Z,75.81
2022-09-09T08:04:26.094Z,76.61
2022-09-09T08:06:58.809Z,75.96
2022-09-09T08:09:32.097Z,76.01
2022-09-09T08:12:00.931Z,75.06
2022-09-09T08:14:28.618Z,73.72
2022-09-09T08:16:59.100Z,73.97
2022-09-09T08:19:37.046Z,73.09
2022-09-09T08:22:04.699Z,73.81
2022-09-09T08:24:32.137Z,72.72
2022-09-09T08:26:59.140Z,73.62
2022-09-09T08:29:26.124Z,73.64
2022-09-09T08:31:58.174Z,73.70
2022-09-09T08:34:27.884Z,73.91
2022-09-09T08:36:55.827Z,73.14
2022-09-09T08:39:23.998Z,73.54
2022-09-09T08:42:01.586Z,74.29
2022-09-09T08:44:58.894Z,73.88
2022-09-09T08:48:10.313Z,74.96
2022-09-09T08:50:41.755Z,72.95
2022-09-09T08:53:32.480Z,72.00
2022-09-09T08:56:07.909Z,71.92
2022-09-09T08:58:41.741Z,72.94
2022-09-09T09:01:49.282Z,72.78
2022-09-09T09:04:52.823Z,73.87
2022-09-09T09:07:49.998Z,72.65
2022-09-09T09:10:54.835Z,72.46
2022-09-09T09:13:49.704Z,73.14
2022-09-09T09:16:33.292Z,71.80
2022-09-09T09:19:01.293Z,72.48
2022-09-09T09:21:33.968Z,73.80
2022-09-09T09:24:02.564Z,73.37
2022-09-09T09:26:36.720Z,72.62
2022-09-09T09:29:20.798Z,72.50
2022-09-09T09:31:55.692Z,72.24
2022-09-09T09:34:25.493Z,71.17
2022-09-09T09:37:02.800Z,72.17
2022-09-09T09:42:26.653Z,69.01
2022-09-09T09:44:53.779Z,67.99
2022-09-09T09:47:27.982Z,66.58
2022-09-09T09:50:02.123Z,66.90
2022-09-09T09:52:33.224Z,67.32
2022-09-09T09:55:07.486Z,64.42
2022-09-09T09:57:35.416Z,67.73
2022-09-09T10:00:23.847Z,66.54
2022-09-09T10:02:57.367Z,65.43
2022-09-09T10:05:35.833Z,66.82
2022-09-09T10:08:17.761Z,64.08
2022-09-09T10:11:00.766Z,65.00
2022-09-09T10:14:16.088Z,67.55
2022-09-09T10:17:35.514Z,64.59
2022-09-09T10:20:36.768Z,63.42
2022-09-09T10:23:34.809Z,62.73
2022-09-09T10:26:26.391Z,61.06
2022-09-09T10:29:34.897Z,63.22
2022-09-09T10:32:32.330Z,61.42
2022-09-09T10:35:43.337Z,59.15
2022-09-09T10:38:27.367Z,59.15
2022-09-09T10:40:54.339Z,61.27
2022-09-09T10:44:05.999Z,58.72
2022-09-09T10:47:09.655Z,55.82
2022-09-09T10:50:09.478Z,56.93
2022-09-09T10:53:18.079Z,58.05
2022-09-09T10:56:07.438Z,59.64
2022-09-09T10:59:03.243Z,58.03
2022-09-09T11:01:58.341Z,59.65
2022-09-09T11:04:45.996Z,58.38
2022-09-09T11:07:40.453Z,56.65
2022-09-09T11:10:58.738Z,57.19
2022-09-09T11:13:55.374Z,54.72
2022-09-09T11:16:38.039Z,55.70
2022-09-09T11:19:38.679Z,55.34
2022-09-09T11:23:18.206Z,55.23
2022-09-09T11:25:56.912Z,55.37
2022-09-09T11:29:04.730Z,52.74
2022-09-09T11:32:19.027Z,53.88
2022-09-09T11:35:42.398Z,56.57
2022-09-09T11:38:22.501Z,53.28
2022-09-09T11:41:06.801Z,51.72
2022-09-09T11:43:53.083Z,51.93
2022-09-09T11:46:37.778Z,55.23
2022-09-09T11:49:08.081Z,51.41
2022-09-09T11:51:36.388Z,54.76
2022-09-09T11:54:34.459Z,53.83
2022-09-09T11:57:03.183Z,53.04
2022-09-09T11:59:35.877Z,52.38
2022-09-09T12:02:23.384Z,51.34
2022-09-09T12:05:07.105Z,51.25
2022-09-09T12:07:58.104Z,52.91
2022-09-09T12:10:33.862Z,52.33
2022-09-09T12:13:32.375Z,52.54
2022-09-09T12:16:03.256Z,49.92
2022-09-09T12:18:45.360Z,51.24
2022-09-09T12:21:40.332Z,52.22
2022-09-09T12:24:26.612Z,49.96
2022-09-09T12:27:22.587Z,48.54
2022-09-09T12:30:10.506Z,55.26
2022-09-09T12:32:38.998Z,49.33
2022-09-09T12:35:28.910Z,47.30
2022-09-09T12:38:07.920Z,50.19
2022-09-09T12:40:40.102Z,52.86
2022-09-09T12:43:22.968Z,49.62
2022-09-09T12:45:58.743Z,54.30
2022-09-09T12:48:45.502Z,50.65
2022-09-09T12:51:33.297Z,49.67
2022-09-09T12:54:01.421Z,52.41
2022-09-09T12:56:33.449Z,49.60
2022-09-09T12:59:01.885Z,51.79
2022-09-09T13:01:34.187Z,53.88
2022-09-09T13:04:01.948Z,53.59
2022-09-09T13:06:32.582Z,50.12
2022-09-09T13:09:03.312Z,53.11
2022-09-09T13:11:44.792Z,53.05
2022-09-09T13:14:28.092Z,51.75
2022-09-09T13:17:04.854Z,52.73
2022-09-09T13:19:40.726Z,52.63
2022-09-09T13:22:38.553Z,53.38
2022-09-09T13:25:12.398Z,56.46
2022-09-09T13:27:54.338Z,53.33
2022-09-09T13:30:33.371Z,54.46
2022-09-09T13:33:12.977Z,53.39
2022-09-09T13:36:00.009Z,53.68
2022-09-09T13:38:29.314Z,53.88
2022-09-09T13:41:05.250Z,53.64
2022-09-09T13:43:44.358Z,54.48
2022-09-09T13:46:38.450Z,54.81
2022-09-09T13:49:11.081Z,61.03
2022-09-09T13:51:51.948Z,55.60
2022-09-09T13:54:21.862Z,53.58
2022-09-09T13:56:50.651Z,51.78
2022-09-09T13:59:28.083Z,51.71
2022-09-09T14:02:05.766Z,50.69
2022-09-09T14:04:32.724Z,46.29
2022-09-09T14:07:00.495Z,48.33
2022-09-09T14:09:27.432Z,46.54
2022-09-09T14:11:56.205Z,46.28
2022-09-09T14:14:23.275Z,49.70
2022-09-09T14:16:50.539Z,45.78
2022-09-09T14:19:22.605Z,46.10
2022-09-09T14:21:54.142Z,47.91
2022-09-09T14:24:21.200Z,46.67
2022-09-09T14:26:49.035Z,47.49
2022-09-09T14:29:16.014Z,47.18
2022-09-09T14:31:45.939Z,48.18
2022-09-09T14:34:15.206Z,46.42
2022-09-09T14:36:42.423Z,45.69
2022-09-09T14:39:09.615Z,47.19
2022-09-09T14:41:36.571Z,46.13
2022-09-09T14:44:06.552Z,48.60
2022-09-09T14:46:34.468Z,51.03
2022-09-09T14:49:01.485Z,49.96
2022-09-09T14:51:29.111Z,51.02
2022-09-09T14:54:00.014Z,51.18
2022-09-09T14:56:32.059Z,52.24
2022-09-09T14:59:09.662Z,53.52
2022-09-09T15:01:36.837Z,52.76
2022-09-09T15:04:14.830Z,51.90
2022-09-09T15:06:45.282Z,50.95
2022-09-09T15:09:12.711Z,51.38
2022-09-09T15:11:40.073Z,50.19
2022-09-09T15:14:10.318Z,51.03
2022-09-09T15:16:40.745Z,50.49
2022-09-09T15:19:08.194Z,52.34
2022-09-09T15:21:39.474Z,52.06
2022-09-09T15:24:09.192Z,54.06
2022-09-09T15:26:39.336Z,53.73
2022-09-09T15:29:08.426Z,55.26
2022-09-09T15:31:36.303Z,56.70
2022-09-09T15:34:07.932Z,56.03
2022-09-09T15:36:39.529Z,59.28
2022-09-09T15:39:13.492Z,55.94
2022-09-09T15:41:41.572Z,57.28
2022-09-09T15:44:11.982Z,57.02
2022-09-09T15:46:52.366Z,55.22
2022-09-09T15:49:27.473Z,52.78
2022-09-09T15:52:03.264Z,54.75
2022-09-09T15:54:36.372Z,55.81
2022-09-09T15:57:06.801Z,57.58
2022-09-09T15:59:34.968Z,55.03
2022-09-09T16:02:02.708Z,55.27
2022-09-09T16:04:30.709Z,54.49
2022-09-09T16:07:05.651Z,56.06
2022-09-09T16:09:34.069Z,56.07
2022-09-09T16:12:07.272Z,57.80
2022-09-09T16:14:36.628Z,59.01
2022-09-09T16:17:06.314Z,57.53
2022-09-09T16:19:35.598Z,59.01
2022-09-09T16:24:30.509Z,59.35
2022-09-09T16:26:57.630Z,61.69
2022-09-09T16:29:28.175Z,61.16
2022-09-09T16:31:58.831Z,59.21
2022-09-09T16:34:29.708Z,59.28
2022-09-09T16:36:57.133Z,59.07
2022-09-09T16:39:24.242Z,59.53
2022-09-09T16:41:52.546Z,58.85
2022-09-09T16:44:20.389Z,58.95
2022-09-09T16:46:56.653Z,59.38
2022-09-09T16:49:25.216Z,60.20
2022-09-09T16:51:55.505Z,60.40
2022-09-09T16:54:24.338Z,60.69
2022-09-09T16:56:51.250Z,60.33
2022-09-09T16:59:24.802Z,62.33
2022-09-09T17:01:53.517Z,64.43
2022-09-09T17:04:29.029Z,65.96
2022-09-09T17:06:58.337Z,64.63
2022-09-09T17:09:30.073Z,65.44
2022-09-09T17:11:58.091Z,66.11
2022-09-09T17:14:25.114Z,65.49
2022-09-09T17:16:52.438Z,68.86
2022-09-09T17:19:19.976Z,68.50
2022-09-09T17:22:15.018Z,67.91
2022-09-09T17:24:39.349Z,68.00
2022-09-09T17:27:06.693Z,67.80
2022-09-09T17:29:36.752Z,69.53
2022-09-09T17:32:06.362Z,69.54
2022-09-09T17:34:34.085Z,68.57
2022-09-09T17:37:01.165Z,67.89
2022-09-09T17:39:28.307Z,71.02
2022-09-09T17:41:55.642Z,72.82
2022-09-09T17:44:22.659Z,73.48
2022-09-09T17:46:50.882Z,74.05
2022-09-09T17:49:19.318Z,74.09
2022-09-09T17:51:47.300Z,73.98
2022-09-09T17:54:21.585Z,73.42
2022-09-09T17:56:49.643Z,71.72
2022-09-09T17:59:18.851Z,71.21
2022-09-09T18:01:49.679Z,70.99
2022-09-09T18:04:18.408Z,71.11
2022-09-09T18:06:55.562Z,72.12
2022-09-09T18:09:26.473Z,74.99
2022-09-09T18:11:57.771Z,76.58
2022-09-09T18:14:32.229Z,77.87
2022-09-09T18:17:02.166Z,77.28
2022-09-09T18:19:32.960Z,74.60
2022-09-09T18:22:02.695Z,74.58
2022-09-09T18:24:30.717Z,73.93
2022-09-09T18:26:58.152Z,73.99
2022-09-09T18:29:26.190Z,71.70
2022-09-09T18:31:55.706Z,70.16
2022-09-09T18:34:25.770Z,68.22
2022-09-09T18:36:55.745Z,68.36
2022-09-09T18:39:29.808Z,67.76
2022-09-09T18:42:01.297Z,67.73
2022-09-09T18:44:34.745Z,68.68
2022-09-09T18:47:03.562Z,69.53
2022-09-09T18:49:30.731Z,69.78
2022-09-09T18:51:57.933Z,70.74
2022-09-09T18:54:29.822Z,71.81
2022-09-09T18:56:57.369Z,71.99
2022-09-09T18:59:25.535Z,73.33
2022-09-09T19:01:54.275Z,73.47
2022-09-09T19:04:24.524Z,73.03
2022-09-09T19:06:57.729Z,73.16
2022-09-09T19:09:30.994Z,74.15
2022-09-09T19:12:02.139Z,74.14
2022-09-09T19:14:29.734Z,76.13
2022-09-09T19:16:57.296Z,76.02
2022-09-09T19:19:32.771Z,76.42
2022-09-09T19:22:01.715Z,75.77
2022-09-09T19:24:32.473Z,76.41
2022-09-09T19:27:05.662Z,76.24
2022-09-09T19:29:36.663Z,76.33
2022-09-09T19:34:52.509Z,77.36
2022-09-09T19:37:19.756Z,78.70
2022-09-09T19:39:49.343Z,79.12
2022-09-09T19:42:16.737Z,79.59
2022-09-09T19:44:43.794Z,79.14
2022-09-09T19:47:10.957Z,79.10
2022-09-09T19:49:38.569Z,79.46
2022-09-09T19:52:05.640Z,80.12
2022-09-09T19:54:32.950Z,80.70
2022-09-09T19:57:03.470Z,80.61
2022-09-09T19:59:30.611Z,80.86
2022-09-09T20:01:58.362Z,80.84
2022-09-09T20:04:26.336Z,80.61
2022-09-09T20:06:53.854Z,79.16
2022-09-09T20:09:21.857Z,78.52
2022-09-09T20:11:50.316Z,77.02
2022-09-09T20:14:18.166Z,76.80
2022-09-09T20:16:46.342Z,75.41
2022-09-09T20:19:18.465Z,75.31
2022-09-09T20:21:49.339Z,75.89
2022-09-09T20:24:20.567Z,75.19
2022-09-09T20:26:48.891Z,74.22
2022-09-09T20:29:20.060Z,74.73
2022-09-09T20:31:48.395Z,74.62
2022-09-09T20:34:21.734Z,73.37
2022-09-09T20:36:50.767Z,73.81
2022-09-09T20:39:20.854Z,73.41
2022-09-09T20:41:49.105Z,73.68
2022-09-09T20:44:24.076Z,74.65
2022-09-09T20:47:02.585Z,74.40
2022-09-09T20:49:30.445Z,74.81
2022-09-09T20:51:57.374Z,74.95
2022-09-09T20:54:30.121Z,75.19
2022-09-09T20:56:58.036Z,74.79
2022-09-09T20:59:31.174Z,74.30
2022-09-09T21:01:59.396Z,75.10
2022-09-09T21:04:26.429Z,75.37
2022-09-09T21:06:53.603Z,76.79
2022-09-09T21:09:23.137Z,76.38
2022-09-09T21:11:51.007Z,77.55
2022-09-09T21:14:18.268Z,78.01
2022-09-09T21:16:45.761Z,77.84
2022-09-09T21:19:12.713Z,78.28
2022-09-09T21:21:40.111Z,78.40
2022-09-09T21:24:07.285Z,77.48
2022-09-09T21:26:35.441Z,77.10
2022-09-09T21:29:02.745Z,77.40
2022-09-09T21:31:29.866Z,76.83
2022-09-09T21:33:57.862Z,77.87
2022-09-09T21:36:28.203Z,78.74
2022-09-09T21:38:56.708Z,77.26
2022-09-09T21:41:23.709Z,78.40
2022-09-09T21:43:54.353Z,78.46
2022-09-09T21:46:23.193Z,78.78
2022-09-09T21:48:50.616Z,78.51
2022-09-09T21:51:18.865Z,78.04
2022-09-09T21:53:46.144Z,77.47
2022-09-09T21:56:19.080Z,77.30
2022-09-09T21:58:47.247Z,79.58
2022-09-09T22:01:18.099Z,80.07
2022-09-09T22:03:46.140Z,79.94
2022-09-09T22:06:17.483Z,79.56
2022-09-09T22:08:47.712Z,79.67
2022-09-09T22:11:25.285Z,80.90
2022-09-09T22:13:55.810Z,80.34
2022-09-09T22:16:23.915Z,80.59
2022-09-09T22:18:56.761Z,80.07
2022-09-09T22:21:26.153Z,79.92
2022-09-09T22:23:59.629Z,78.53
2022-09-09T22:26:31.610Z,78.70
2022-09-09T22:28:59.369Z,78.39
2022-09-09T22:31:27.897Z,77.70
2022-09-09T22:33:55.262Z,77.65
2022-09-09T22:36:22.808Z,77.87
2022-09-09T22:38:51.724Z,78.41
2022-09-09T22:41:19.933Z,78.39
2022-09-09T22:43:47.553Z,78.48
2022-09-09T22:46:15.354Z,78.58
2022-09-09T22:48:43.142Z,79.16
2022-09-09T22:51:14.536Z,79.08
2022-09-09T22:53:44.684Z,79.23
2022-09-09T22:56:19.447Z,80.16
2022-09-09T22:58:47.782Z,80.12
2022-09-09T23:01:20.903Z,81.54
2022-09-09T23:03:49.523Z,83.41
2022-09-09T23:06:23.923Z,83.59
2022-09-09T23:08:56.262Z,83.98
2022-09-09T23:11:29.114Z,84.36
2022-09-09T23:14:00.151Z,83.20
2022-09-09T23:16:39.469Z,83.37
2022-09-09T23:19:10.153Z,82.26
2022-09-09T23:21:39.408Z,80.11
2022-09-09T23:24:08.726Z,81.38
2022-09-09T23:26:35.735Z,81.80
2022-09-09T23:29:02.706Z,82.23
2022-09-09T23:31:35.459Z,82.34
2022-09-09T23:34:02.584Z,82.89
2022-09-09T23:36:30.347Z,83.04
2022-09-09T23:39:04.046Z,84.21
2022-09-09T23:41:33.072Z,84.42
2022-09-09T23:44:02.390Z,83.64
2022-09-09T23:46:32.217Z,83.99
2022-09-09T23:49:00.316Z,82.72
2022-09-09T23:51:33.898Z,82.51
2022-09-09T23:54:04.661Z,82.56
2022-09-09T23:56:40.411Z,83.09
2022-09-09T23:59:08.527Z,84.00
